sensor_id;sensor_type;location;lat;lon;timestamp;pressure;altitude;pressure_sealevel;temperature;humidity
32243;BME280;18731;42.830;24.390;2023-04-09T03:02:44;94783.38;;;7.05;85.46
32243;BME280;18731;42.830;24.390;2023-04-09T03:05:10;94787.59;;;7.06;85.34
32243;BME280;18731;42.830;24.390;2023-04-09T03:07:39;94774.81;;;7.08;85.29
32243;BME280;18731;42.830;24.390;2023-04-09T03:10:05;94778.75;;;7.10;85.07
32243;BME280;18731;42.830;24.390;2023-04-09T03:12:31;94774.72;;;7.13;84.67
32243;BME280;18731;42.830;24.390;2023-04-09T03:14:57;94777.06;;;7.15;84.31
32243;BME280;18731;42.830;24.390;2023-04-09T03:17:22;94774.41;;;7.15;84.03
32243;BME280;18731;42.830;24.390;2023-04-09T03:19:52;94783.66;;;7.17;83.99
32243;BME280;18731;42.830;24.390;2023-04-09T03:22:17;94773.81;;;7.18;83.76
32243;BME280;18731;42.830;24.390;2023-04-09T03:24:43;94761.63;;;7.17;83.58
32243;BME280;18731;42.830;24.390;2023-04-09T03:27:09;94786.78;;;7.19;83.72
32243;BME280;18731;42.830;24.390;2023-04-09T03:29:35;94772.13;;;7.22;83.61
32243;BME280;18731;42.830;24.390;2023-04-09T03:32:00;94765.34;;;7.16;83.64
32243;BME280;18731;42.830;24.390;2023-04-09T03:34:26;94772.72;;;7.19;83.70
32243;BME280;18731;42.830;24.390;2023-04-09T03:36:52;94775.09;;;7.20;83.43
32243;BME280;18731;42.830;24.390;2023-04-09T03:39:17;94770.94;;;7.28;83.40
32243;BME280;18731;42.830;24.390;2023-04-09T03:41:43;94771.81;;;7.23;83.16
32243;BME280;18731;42.830;24.390;2023-04-09T03:44:09;94789.63;;;7.23;83.75
32243;BME280;18731;42.830;24.390;2023-04-09T03:46:34;94795.25;;;7.07;84.25
32243;BME280;18731;42.830;24.390;2023-04-09T03:49:00;94798.88;;;7.12;84.24
32243;BME280;18731;42.830;24.390;2023-04-09T03:51:26;94800.47;;;7.13;84.36
32243;BME280;18731;42.830;24.390;2023-04-09T03:53:51;94794.38;;;7.12;84.31
32243;BME280;18731;42.830;24.390;2023-04-09T03:56:17;94799.38;;;7.14;84.51
32243;BME280;18731;42.830;24.390;2023-04-09T03:58:43;94783.66;;;7.03;84.78
32243;BME280;18731;42.830;24.390;2023-04-09T04:01:08;94803.72;;;7.09;85.10
32243;BME280;18731;42.830;24.390;2023-04-09T04:03:34;94788.69;;;7.05;84.94
32243;BME280;18731;42.830;24.390;2023-04-09T04:06:01;94797.81;;;7.13;84.32
32243;BME280;18731;42.830;24.390;2023-04-09T04:08:27;94799.38;;;7.14;84.27
32243;BME280;18731;42.830;24.390;2023-04-09T04:10:53;94794.97;;;7.09;84.22
32243;BME280;18731;42.830;24.390;2023-04-09T04:13:19;94795.38;;;7.02;84.80
32243;BME280;18731;42.830;24.390;2023-04-09T04:15:44;94796.06;;;7.08;84.71
32243;BME280;18731;42.830;24.390;2023-04-09T04:18:10;94805.66;;;7.18;84.63
32243;BME280;18731;42.830;24.390;2023-04-09T04:20:36;94797.88;;;7.21;84.53
32243;BME280;18731;42.830;24.390;2023-04-09T04:23:03;94799.16;;;7.24;84.21
32243;BME280;18731;42.830;24.390;2023-04-09T04:25:29;94797.59;;;7.23;84.23
32243;BME280;18731;42.830;24.390;2023-04-09T04:27:56;94795.44;;;7.25;84.02
32243;BME280;18731;42.830;24.390;2023-04-09T04:30:22;94777.25;;;7.18;84.05
32243;BME280;18731;42.830;24.390;2023-04-09T04:32:48;94797.00;;;7.26;83.46
32243;BME280;18731;42.830;24.390;2023-04-09T04:35:14;94804.97;;;7.26;83.29
32243;BME280;18731;42.830;24.390;2023-04-09T04:37:40;94798.56;;;7.27;83.43
32243;BME280;18731;42.830;24.390;2023-04-09T04:40:08;94802.91;;;7.23;83.38
32243;BME280;18731;42.830;24.390;2023-04-09T04:42:34;94804.47;;;7.24;83.43
32243;BME280;18731;42.830;24.390;2023-04-09T04:45:00;94791.50;;;7.22;83.68
32243;BME280;18731;42.830;24.390;2023-04-09T04:47:26;94812.88;;;7.39;83.55
32243;BME280;18731;42.830;24.390;2023-04-09T04:49:52;94815.72;;;7.43;83.63
32243;BME280;18731;42.830;24.390;2023-04-09T04:52:18;94809.91;;;7.55;82.79
32243;BME280;18731;42.830;24.390;2023-04-09T04:54:44;94793.69;;;7.42;82.44
32243;BME280;18731;42.830;24.390;2023-04-09T04:57:10;94804.41;;;7.51;82.69
32243;BME280;18731;42.830;24.390;2023-04-09T04:59:36;94786.03;;;7.41;83.10
32243;BME280;18731;42.830;24.390;2023-04-09T05:02:03;94792.63;;;7.43;82.91
32243;BME280;18731;42.830;24.390;2023-04-09T05:04:28;94807.41;;;7.58;82.19
32243;BME280;18731;42.830;24.390;2023-04-09T05:06:56;94799.88;;;7.52;82.08
32243;BME280;18731;42.830;24.390;2023-04-09T05:09:21;94813.41;;;7.64;81.75
32243;BME280;18731;42.830;24.390;2023-04-09T05:11:47;94799.53;;;7.67;81.64
32243;BME280;18731;42.830;24.390;2023-04-09T05:14:13;94799.69;;;7.70;80.77
32243;BME280;18731;42.830;24.390;2023-04-09T05:16:39;94806.75;;;7.89;80.55
32243;BME280;18731;42.830;24.390;2023-04-09T05:19:04;94807.72;;;7.93;79.17
32243;BME280;18731;42.830;24.390;2023-04-09T05:21:30;94798.81;;;7.97;78.12
32243;BME280;18731;42.830;24.390;2023-04-09T05:23:56;94790.31;;;7.87;78.83
32243;BME280;18731;42.830;24.390;2023-04-09T05:26:22;94804.91;;;7.98;78.55
32243;BME280;18731;42.830;24.390;2023-04-09T05:28:49;94803.72;;;8.04;77.66
32243;BME280;18731;42.830;24.390;2023-04-09T05:31:14;94804.19;;;8.06;76.98
32243;BME280;18731;42.830;24.390;2023-04-09T05:33:41;94802.00;;;8.08;76.71
32243;BME280;18731;42.830;24.390;2023-04-09T05:36:06;94802.66;;;8.14;76.78
32243;BME280;18731;42.830;24.390;2023-04-09T05:38:32;94787.63;;;8.09;76.75
32243;BME280;18731;42.830;24.390;2023-04-09T05:40:58;94795.22;;;8.24;76.23
32243;BME280;18731;42.830;24.390;2023-04-09T05:43:24;94803.81;;;8.21;75.29
32243;BME280;18731;42.830;24.390;2023-04-09T05:45:50;94803.69;;;8.26;74.86
32243;BME280;18731;42.830;24.390;2023-04-09T05:48:15;94804.63;;;8.30;74.49
32243;BME280;18731;42.830;24.390;2023-04-09T05:50:52;94793.03;;;8.26;74.74
32243;BME280;18731;42.830;24.390;2023-04-09T05:53:18;94799.16;;;8.27;75.19
32243;BME280;18731;42.830;24.390;2023-04-09T05:55:44;94795.28;;;8.33;74.37
32243;BME280;18731;42.830;24.390;2023-04-09T05:58:11;94806.03;;;8.28;73.20
32243;BME280;18731;42.830;24.390;2023-04-09T06:00:37;94804.41;;;8.18;73.35
32243;BME280;18731;42.830;24.390;2023-04-09T06:03:03;94806.72;;;8.33;74.07
32243;BME280;18731;42.830;24.390;2023-04-09T06:05:29;94806.19;;;8.54;73.78
32243;BME280;18731;42.830;24.390;2023-04-09T06:07:54;94804.38;;;8.72;72.99
32243;BME280;18731;42.830;24.390;2023-04-09T06:10:20;94794.53;;;8.81;72.87
32243;BME280;18731;42.830;24.390;2023-04-09T06:12:46;94800.22;;;8.96;72.43
32243;BME280;18731;42.830;24.390;2023-04-09T06:15:11;94794.13;;;9.05;72.32
32243;BME280;18731;42.830;24.390;2023-04-09T06:17:37;94793.66;;;9.02;72.30
32243;BME280;18731;42.830;24.390;2023-04-09T06:20:03;94793.03;;;9.06;73.35
32243;BME280;18731;42.830;24.390;2023-04-09T06:22:29;94793.19;;;9.00;72.28
32243;BME280;18731;42.830;24.390;2023-04-09T06:24:54;94789.44;;;9.01;72.33
32243;BME280;18731;42.830;24.390;2023-04-09T06:27:21;94790.22;;;9.02;72.41
32243;BME280;18731;42.830;24.390;2023-04-09T06:29:47;94793.34;;;8.95;72.95
32243;BME280;18731;42.830;24.390;2023-04-09T06:32:12;94809.03;;;9.06;72.39
32243;BME280;18731;42.830;24.390;2023-04-09T06:34:38;94796.81;;;9.05;73.11
32243;BME280;18731;42.830;24.390;2023-04-09T06:37:03;94804.63;;;9.01;72.02
32243;BME280;18731;42.830;24.390;2023-04-09T06:39:29;94799.91;;;8.89;73.50
32243;BME280;18731;42.830;24.390;2023-04-09T06:41:55;94803.47;;;8.85;72.77
32243;BME280;18731;42.830;24.390;2023-04-09T06:44:21;94814.13;;;8.85;73.34
32243;BME280;18731;42.830;24.390;2023-04-09T06:46:48;94808.53;;;8.95;72.88
32243;BME280;18731;42.830;24.390;2023-04-09T06:49:14;94808.22;;;8.96;74.31
32243;BME280;18731;42.830;24.390;2023-04-09T06:51:43;94810.72;;;9.01;73.29
32243;BME280;18731;42.830;24.390;2023-04-09T06:54:09;94805.25;;;9.07;73.02
32243;BME280;18731;42.830;24.390;2023-04-09T06:56:35;94797.13;;;9.12;73.25
32243;BME280;18731;42.830;24.390;2023-04-09T06:59:02;94803.25;;;9.29;73.63
32243;BME280;18731;42.830;24.390;2023-04-09T07:01:28;94802.34;;;9.34;71.61
32243;BME280;18731;42.830;24.390;2023-04-09T07:03:54;94784.91;;;9.11;72.42
32243;BME280;18731;42.830;24.390;2023-04-09T07:06:23;94802.66;;;9.32;71.78
32243;BME280;18731;42.830;24.390;2023-04-09T07:08:51;94803.59;;;9.54;71.54
32243;BME280;18731;42.830;24.390;2023-04-09T07:11:18;94793.41;;;9.56;71.18
32243;BME280;18731;42.830;24.390;2023-04-09T07:13:43;94796.22;;;9.68;70.95
32243;BME280;18731;42.830;24.390;2023-04-09T07:16:09;94788.06;;;9.82;70.05
32243;BME280;18731;42.830;24.390;2023-04-09T07:18:34;94797.16;;;9.81;67.98
32243;BME280;18731;42.830;24.390;2023-04-09T07:21:00;94781.19;;;9.81;69.37
32243;BME280;18731;42.830;24.390;2023-04-09T07:23:26;94782.88;;;10.03;68.80
32243;BME280;18731;42.830;24.390;2023-04-09T07:25:51;94795.56;;;10.14;66.87
32243;BME280;18731;42.830;24.390;2023-04-09T07:28:17;94791.00;;;10.15;66.91
32243;BME280;18731;42.830;24.390;2023-04-09T07:30:43;94783.97;;;10.02;65.59
32243;BME280;18731;42.830;24.390;2023-04-09T07:33:10;94793.69;;;10.06;66.29
32243;BME280;18731;42.830;24.390;2023-04-09T07:35:36;94791.78;;;10.15;66.50
32243;BME280;18731;42.830;24.390;2023-04-09T07:38:01;94785.50;;;10.28;65.69
32243;BME280;18731;42.830;24.390;2023-04-09T07:40:27;94783.91;;;10.45;63.84
32243;BME280;18731;42.830;24.390;2023-04-09T07:42:53;94796.75;;;10.60;63.99
32243;BME280;18731;42.830;24.390;2023-04-09T07:45:20;94791.94;;;10.83;66.39
32243;BME280;18731;42.830;24.390;2023-04-09T07:47:45;94794.00;;;11.07;64.47
32243;BME280;18731;42.830;24.390;2023-04-09T07:50:11;94790.66;;;11.39;64.24
32243;BME280;18731;42.830;24.390;2023-04-09T07:52:37;94790.34;;;12.03;61.63
32243;BME280;18731;42.830;24.390;2023-04-09T07:55:03;94794.47;;;12.46;57.08
32243;BME280;18731;42.830;24.390;2023-04-09T07:57:32;94793.94;;;12.77;58.49
32243;BME280;18731;42.830;24.390;2023-04-09T07:59:57;94784.41;;;12.43;48.79
32243;BME280;18731;42.830;24.390;2023-04-09T08:02:23;94762.06;;;12.14;46.62
32243;BME280;18731;42.830;24.390;2023-04-09T08:04:49;94799.06;;;12.12;45.85
32243;BME280;18731;42.830;24.390;2023-04-09T08:07:15;94750.56;;;11.81;46.04
32243;BME280;18731;42.830;24.390;2023-04-09T08:09:41;94782.53;;;11.77;46.94
32243;BME280;18731;42.830;24.390;2023-04-09T08:12:06;94791.78;;;11.59;47.20
32243;BME280;18731;42.830;24.390;2023-04-09T08:14:32;94780.50;;;11.53;46.07
32243;BME280;18731;42.830;24.390;2023-04-09T08:16:59;94767.84;;;11.42;47.36
32243;BME280;18731;42.830;24.390;2023-04-09T08:19:25;94773.47;;;11.49;46.04
32243;BME280;18731;42.830;24.390;2023-04-09T08:21:50;94732.53;;;11.36;44.14
32243;BME280;18731;42.830;24.390;2023-04-09T08:24:16;94781.47;;;11.70;44.39
32243;BME280;18731;42.830;24.390;2023-04-09T08:26:42;94776.06;;;11.99;45.66
32243;BME280;18731;42.830;24.390;2023-04-09T08:29:10;94783.09;;;12.04;43.34
32243;BME280;18731;42.830;24.390;2023-04-09T08:31:36;94791.47;;;12.14;43.93
32243;BME280;18731;42.830;24.390;2023-04-09T08:34:02;94776.34;;;12.18;41.30
32243;BME280;18731;42.830;24.390;2023-04-09T08:36:28;94782.66;;;12.59;43.75
32243;BME280;18731;42.830;24.390;2023-04-09T08:38:53;94783.78;;;12.58;42.73
32243;BME280;18731;42.830;24.390;2023-04-09T08:41:25;94780.69;;;12.93;42.32
32243;BME280;18731;42.830;24.390;2023-04-09T08:43:51;94777.13;;;13.01;40.96
32243;BME280;18731;42.830;24.390;2023-04-09T08:46:18;94785.63;;;13.27;41.67
32243;BME280;18731;42.830;24.390;2023-04-09T08:48:45;94802.00;;;13.50;38.70
32243;BME280;18731;42.830;24.390;2023-04-09T08:51:15;94780.03;;;13.32;39.24
32243;BME280;18731;42.830;24.390;2023-04-09T08:53:48;94755.22;;;13.35;40.10
32243;BME280;18731;42.830;24.390;2023-04-09T08:56:18;94782.66;;;13.57;38.87
32243;BME280;18731;42.830;24.390;2023-04-09T08:58:45;94786.09;;;13.69;37.78
32243;BME280;18731;42.830;24.390;2023-04-09T09:01:28;94771.19;;;13.84;39.43
32243;BME280;18731;42.830;24.390;2023-04-09T09:06:30;94767.66;;;14.24;41.32
32243;BME280;18731;42.830;24.390;2023-04-09T09:09:04;94775.16;;;14.46;38.75
32243;BME280;18731;42.830;24.390;2023-04-09T09:11:31;94760.97;;;14.61;36.67
32243;BME280;18731;42.830;24.390;2023-04-09T09:14:08;94758.03;;;14.66;38.23
32243;BME280;18731;42.830;24.390;2023-04-09T09:16:37;94756.22;;;14.70;38.11
32243;BME280;18731;42.830;24.390;2023-04-09T09:19:30;94752.25;;;14.36;37.67
32243;BME280;18731;42.830;24.390;2023-04-09T09:22:04;94749.56;;;14.36;38.51
32243;BME280;18731;42.830;24.390;2023-04-09T09:24:30;94749.63;;;14.08;36.99
32243;BME280;18731;42.830;24.390;2023-04-09T09:27:00;94759.16;;;14.22;38.22
32243;BME280;18731;42.830;24.390;2023-04-09T09:29:26;94759.06;;;14.18;38.11
32243;BME280;18731;42.830;24.390;2023-04-09T09:31:54;94747.41;;;14.26;37.59
32243;BME280;18731;42.830;24.390;2023-04-09T09:34:22;94754.25;;;14.39;37.59
32243;BME280;18731;42.830;24.390;2023-04-09T09:36:48;94753.69;;;14.46;38.71
32243;BME280;18731;42.830;24.390;2023-04-09T09:39:15;94753.16;;;14.56;38.46
32243;BME280;18731;42.830;24.390;2023-04-09T09:41:43;94746.31;;;14.59;38.32
32243;BME280;18731;42.830;24.390;2023-04-09T09:44:10;94757.69;;;14.84;37.49
32243;BME280;18731;42.830;24.390;2023-04-09T09:46:38;94756.13;;;14.51;36.36
32243;BME280;18731;42.830;24.390;2023-04-09T09:49:05;94747.63;;;14.49;37.98
32243;BME280;18731;42.830;24.390;2023-04-09T09:51:35;94738.06;;;14.36;37.53
32243;BME280;18731;42.830;24.390;2023-04-09T09:54:02;94751.88;;;14.66;39.00
32243;BME280;18731;42.830;24.390;2023-04-09T09:56:34;94743.09;;;14.85;37.30
32243;BME280;18731;42.830;24.390;2023-04-09T09:59:20;94749.75;;;15.06;38.28
32243;BME280;18731;42.830;24.390;2023-04-09T10:01:59;94744.59;;;15.33;38.24
32243;BME280;18731;42.830;24.390;2023-04-09T10:04:32;94733.06;;;15.32;38.74
32243;BME280;18731;42.830;24.390;2023-04-09T10:07:00;94738.31;;;15.09;35.98
32243;BME280;18731;42.830;24.390;2023-04-09T10:09:29;94741.63;;;15.03;39.06
32243;BME280;18731;42.830;24.390;2023-04-09T10:11:56;94724.03;;;14.90;37.76
32243;BME280;18731;42.830;24.390;2023-04-09T10:14:24;94717.72;;;14.82;37.27
32243;BME280;18731;42.830;24.390;2023-04-09T10:16:53;94726.47;;;14.47;38.30
32243;BME280;18731;42.830;24.390;2023-04-09T10:19:18;94733.66;;;14.43;38.32
32243;BME280;18731;42.830;24.390;2023-04-09T10:21:52;94720.56;;;14.26;38.34
32243;BME280;18731;42.830;24.390;2023-04-09T10:24:20;94726.50;;;14.04;39.89
32243;BME280;18731;42.830;24.390;2023-04-09T10:26:47;94730.19;;;13.99;38.58
32243;BME280;18731;42.830;24.390;2023-04-09T10:29:14;94733.38;;;13.89;39.52
32243;BME280;18731;42.830;24.390;2023-04-09T10:31:54;94739.13;;;14.03;40.03
32243;BME280;18731;42.830;24.390;2023-04-09T10:34:27;94726.34;;;14.12;39.21
32243;BME280;18731;42.830;24.390;2023-04-09T10:36:57;94733.94;;;14.10;39.66
32243;BME280;18731;42.830;24.390;2023-04-09T10:39:29;94734.44;;;14.00;38.46
32243;BME280;18731;42.830;24.390;2023-04-09T10:42:00;94720.47;;;13.79;36.23
32243;BME280;18731;42.830;24.390;2023-04-09T10:44:29;94726.50;;;14.20;39.82
32243;BME280;18731;42.830;24.390;2023-04-09T10:46:57;94742.34;;;14.09;35.79
32243;BME280;18731;42.830;24.390;2023-04-09T10:49:24;94725.91;;;14.10;37.31
32243;BME280;18731;42.830;24.390;2023-04-09T10:51:53;94710.03;;;14.49;37.18
32243;BME280;18731;42.830;24.390;2023-04-09T10:57:19;94707.53;;;15.07;37.47
32243;BME280;18731;42.830;24.390;2023-04-09T10:59:47;94716.28;;;15.39;37.35
32243;BME280;18731;42.830;24.390;2023-04-09T11:07:53;94721.16;;;14.98;35.07
32243;BME280;18731;42.830;24.390;2023-04-09T11:10:22;94717.63;;;14.78;34.32
32243;BME280;18731;42.830;24.390;2023-04-09T11:12:48;94700.28;;;14.92;36.25
32243;BME280;18731;42.830;24.390;2023-04-09T11:15:20;94703.47;;;14.97;35.93
32243;BME280;18731;42.830;24.390;2023-04-09T11:17:46;94709.47;;;14.91;35.94
32243;BME280;18731;42.830;24.390;2023-04-09T11:20:13;94708.78;;;14.94;35.19
32243;BME280;18731;42.830;24.390;2023-04-09T11:22:39;94708.13;;;14.65;35.88
32243;BME280;18731;42.830;24.390;2023-04-09T11:25:05;94700.84;;;14.50;36.83
32243;BME280;18731;42.830;24.390;2023-04-09T11:27:36;94707.50;;;14.56;35.07
32243;BME280;18731;42.830;24.390;2023-04-09T11:30:02;94705.78;;;14.64;35.73
32243;BME280;18731;42.830;24.390;2023-04-09T11:32:32;94697.16;;;14.90;37.10
32243;BME280;18731;42.830;24.390;2023-04-09T11:34:57;94694.94;;;15.11;36.76
32243;BME280;18731;42.830;24.390;2023-04-09T11:37:23;94688.81;;;14.95;36.62
32243;BME280;18731;42.830;24.390;2023-04-09T11:39:49;94697.94;;;14.90;33.88
32243;BME280;18731;42.830;24.390;2023-04-09T11:42:18;94687.69;;;14.96;35.10
32243;BME280;18731;42.830;24.390;2023-04-09T11:44:44;94678.34;;;14.90;35.34
32243;BME280;18731;42.830;24.390;2023-04-09T11:47:12;94687.97;;;15.26;36.29
32243;BME280;18731;42.830;24.390;2023-04-09T11:49:39;94679.34;;;15.55;34.09
32243;BME280;18731;42.830;24.390;2023-04-09T11:52:05;94678.75;;;15.62;35.07
32243;BME280;18731;42.830;24.390;2023-04-09T11:54:34;94671.41;;;15.43;34.73
32243;BME280;18731;42.830;24.390;2023-04-09T11:57:02;94670.78;;;15.50;35.01
32243;BME280;18731;42.830;24.390;2023-04-09T11:59:28;94668.94;;;15.34;36.13
32243;BME280;18731;42.830;24.390;2023-04-09T12:01:57;94663.41;;;15.27;37.53
32243;BME280;18731;42.830;24.390;2023-04-09T12:04:23;94672.88;;;15.21;35.94
32243;BME280;18731;42.830;24.390;2023-04-09T12:06:49;94669.56;;;15.28;36.92
32243;BME280;18731;42.830;24.390;2023-04-09T12:09:15;94658.44;;;15.10;36.18
32243;BME280;18731;42.830;24.390;2023-04-09T12:11:44;94669.66;;;14.96;37.46
32243;BME280;18731;42.830;24.390;2023-04-09T12:14:14;94652.47;;;14.66;37.61
32243;BME280;18731;42.830;24.390;2023-04-09T12:16:41;94670.34;;;14.58;40.10
32243;BME280;18731;42.830;24.390;2023-04-09T12:19:12;94669.56;;;14.58;38.82
32243;BME280;18731;42.830;24.390;2023-04-09T12:21:52;94668.88;;;14.45;38.53
32243;BME280;18731;42.830;24.390;2023-04-09T12:24:22;94661.22;;;14.31;41.87
32243;BME280;18731;42.830;24.390;2023-04-09T12:26:49;94662.69;;;14.29;41.74
32243;BME280;18731;42.830;24.390;2023-04-09T12:29:17;94666.47;;;13.96;42.45
32243;BME280;18731;42.830;24.390;2023-04-09T12:31:44;94661.63;;;13.86;43.66
32243;BME280;18731;42.830;24.390;2023-04-09T12:34:10;94670.59;;;13.78;44.17
32243;BME280;18731;42.830;24.390;2023-04-09T12:36:38;94667.22;;;13.37;44.78
32243;BME280;18731;42.830;24.390;2023-04-09T12:39:03;94677.53;;;12.99;46.00
32243;BME280;18731;42.830;24.390;2023-04-09T12:41:30;94673.31;;;12.85;46.23
32243;BME280;18731;42.830;24.390;2023-04-09T12:43:55;94669.97;;;12.76;46.88
32243;BME280;18731;42.830;24.390;2023-04-09T12:46:21;94677.00;;;12.44;47.11
32243;BME280;18731;42.830;24.390;2023-04-09T12:48:47;94669.75;;;12.45;46.96
32243;BME280;18731;42.830;24.390;2023-04-09T12:51:12;94669.75;;;12.45;47.59
32243;BME280;18731;42.830;24.390;2023-04-09T12:53:39;94655.25;;;12.34;47.89
32243;BME280;18731;42.830;24.390;2023-04-09T12:56:05;94671.75;;;12.36;47.93
32243;BME280;18731;42.830;24.390;2023-04-09T12:58:31;94669.97;;;12.28;48.39
32243;BME280;18731;42.830;24.390;2023-04-09T13:00:57;94664.41;;;12.20;48.51
32243;BME280;18731;42.830;24.390;2023-04-09T13:03:23;94667.97;;;12.37;48.47
32243;BME280;18731;42.830;24.390;2023-04-09T13:05:50;94663.06;;;12.14;49.14
32243;BME280;18731;42.830;24.390;2023-04-09T13:08:16;94666.28;;;12.08;49.04
32243;BME280;18731;42.830;24.390;2023-04-09T13:10:42;94659.69;;;12.05;49.14
32243;BME280;18731;42.830;24.390;2023-04-09T13:13:08;94652.09;;;11.95;49.72
32243;BME280;18731;42.830;24.390;2023-04-09T13:15:37;94667.25;;;11.91;50.66
32243;BME280;18731;42.830;24.390;2023-04-09T13:18:03;94656.97;;;11.81;50.41
32243;BME280;18731;42.830;24.390;2023-04-09T13:20:28;94653.06;;;11.78;51.14
32243;BME280;18731;42.830;24.390;2023-04-09T13:22:55;94662.91;;;11.66;51.99
32243;BME280;18731;42.830;24.390;2023-04-09T13:25:21;94658.22;;;11.63;51.84
32243;BME280;18731;42.830;24.390;2023-04-09T13:27:47;94666.75;;;11.77;51.67
32243;BME280;18731;42.830;24.390;2023-04-09T13:30:12;94675.28;;;11.91;51.99
32243;BME280;18731;42.830;24.390;2023-04-09T13:32:38;94649.84;;;11.85;50.63
32243;BME280;18731;42.830;24.390;2023-04-09T13:35:05;94647.84;;;11.82;50.65
32243;BME280;18731;42.830;24.390;2023-04-09T13:37:31;94661.91;;;11.91;50.94
32243;BME280;18731;42.830;24.390;2023-04-09T13:39:57;94660.16;;;12.07;51.41
32243;BME280;18731;42.830;24.390;2023-04-09T13:42:22;94660.59;;;12.21;50.36
32243;BME280;18731;42.830;24.390;2023-04-09T13:44:48;94648.44;;;12.61;48.80
32243;BME280;18731;42.830;24.390;2023-04-09T13:47:15;94646.78;;;12.56;49.04
32243;BME280;18731;42.830;24.390;2023-04-09T13:49:42;94648.00;;;12.46;48.93
32243;BME280;18731;42.830;24.390;2023-04-09T13:52:10;94639.66;;;12.23;49.28
32243;BME280;18731;42.830;24.390;2023-04-09T13:54:36;94651.47;;;12.22;49.31
32243;BME280;18731;42.830;24.390;2023-04-09T13:57:02;94642.31;;;11.99;49.87
32243;BME280;18731;42.830;24.390;2023-04-09T13:59:28;94643.44;;;12.10;49.75
32243;BME280;18731;42.830;24.390;2023-04-09T14:01:54;94647.75;;;12.03;49.48
32243;BME280;18731;42.830;24.390;2023-04-09T14:04:20;94647.75;;;12.03;49.08
32243;BME280;18731;42.830;24.390;2023-04-09T14:06:46;94640.16;;;11.80;49.26
32243;BME280;18731;42.830;24.390;2023-04-09T14:09:11;94650.13;;;11.71;49.58
32243;BME280;18731;42.830;24.390;2023-04-09T14:11:37;94655.31;;;11.55;49.27
32243;BME280;18731;42.830;24.390;2023-04-09T14:14:03;94659.25;;;11.37;50.03
32243;BME280;18731;42.830;24.390;2023-04-09T14:16:29;94660.25;;;11.33;50.90
32243;BME280;18731;42.830;24.390;2023-04-09T14:18:57;94655.69;;;11.12;51.58
32243;BME280;18731;42.830;24.390;2023-04-09T14:21:23;94648.66;;;11.08;52.21
32243;BME280;18731;42.830;24.390;2023-04-09T14:23:49;94647.69;;;11.12;52.46
32243;BME280;18731;42.830;24.390;2023-04-09T14:26:15;94647.34;;;11.14;52.62
32243;BME280;18731;42.830;24.390;2023-04-09T14:28:41;94651.34;;;11.08;52.89
32243;BME280;18731;42.830;24.390;2023-04-09T14:31:07;94654.97;;;11.03;52.68
32243;BME280;18731;42.830;24.390;2023-04-09T14:33:33;94642.88;;;11.06;52.96
32243;BME280;18731;42.830;24.390;2023-04-09T14:35:59;94643.78;;;11.10;53.16
32243;BME280;18731;42.830;24.390;2023-04-09T14:38:25;94641.34;;;11.17;52.81
32243;BME280;18731;42.830;24.390;2023-04-09T14:40:51;94640.50;;;11.25;52.13
32243;BME280;18731;42.830;24.390;2023-04-09T14:43:17;94636.34;;;11.48;51.68
32243;BME280;18731;42.830;24.390;2023-04-09T14:45:43;94637.88;;;11.37;51.75
32243;BME280;18731;42.830;24.390;2023-04-09T14:48:08;94636.97;;;11.33;51.66
32243;BME280;18731;42.830;24.390;2023-04-09T14:50:34;94636.56;;;11.43;51.27
32243;BME280;18731;42.830;24.390;2023-04-09T14:53:02;94638.53;;;11.34;51.57
32243;BME280;18731;42.830;24.390;2023-04-09T14:55:28;94638.53;;;11.34;52.17
32243;BME280;18731;42.830;24.390;2023-04-09T14:57:54;94629.28;;;11.32;52.15
32243;BME280;18731;42.830;24.390;2023-04-09T15:00:22;94636.78;;;11.38;51.61
32243;BME280;18731;42.830;24.390;2023-04-09T15:02:48;94633.53;;;11.33;51.22
32243;BME280;18731;42.830;24.390;2023-04-09T15:05:14;94632.56;;;11.16;51.40
32243;BME280;18731;42.830;24.390;2023-04-09T15:07:40;94633.94;;;11.22;51.35
32243;BME280;18731;42.830;24.390;2023-04-09T15:10:06;94642.72;;;11.23;52.86
32243;BME280;18731;42.830;24.390;2023-04-09T15:12:32;94635.81;;;11.22;51.80
32243;BME280;18731;42.830;24.390;2023-04-09T15:14:58;94630.03;;;11.20;51.78
32243;BME280;18731;42.830;24.390;2023-04-09T15:17:26;94628.47;;;11.19;52.11
32243;BME280;18731;42.830;24.390;2023-04-09T15:19:53;94628.53;;;11.10;52.22
32243;BME280;18731;42.830;24.390;2023-04-09T15:22:19;94633.34;;;11.17;52.44
32243;BME280;18731;42.830;24.390;2023-04-09T15:24:45;94636.59;;;11.22;52.91
32243;BME280;18731;42.830;24.390;2023-04-09T15:27:11;94632.81;;;11.23;52.03
32243;BME280;18731;42.830;24.390;2023-04-09T15:29:37;94630.16;;;11.23;52.71
32243;BME280;18731;42.830;24.390;2023-04-09T15:32:03;94636.28;;;11.24;52.52
32243;BME280;18731;42.830;24.390;2023-04-09T15:34:28;94628.47;;;11.19;51.68
32243;BME280;18731;42.830;24.390;2023-04-09T15:36:54;94615.63;;;11.12;51.95
32243;BME280;18731;42.830;24.390;2023-04-09T15:39:20;94635.16;;;11.25;52.38
32243;BME280;18731;42.830;24.390;2023-04-09T15:41:48;94619.53;;;11.15;52.68
32243;BME280;18731;42.830;24.390;2023-04-09T15:44:14;94625.31;;;11.17;51.96
32243;BME280;18731;42.830;24.390;2023-04-09T15:46:40;94625.38;;;11.29;51.98
32243;BME280;18731;42.830;24.390;2023-04-09T15:49:06;94613.78;;;11.25;52.20
32243;BME280;18731;42.830;24.390;2023-04-09T15:51:31;94621.94;;;11.28;51.97
32243;BME280;18731;42.830;24.390;2023-04-09T15:53:57;94617.56;;;11.24;51.65
32243;BME280;18731;42.830;24.390;2023-04-09T15:56:23;94626.94;;;11.30;52.05
32243;BME280;18731;42.830;24.390;2023-04-09T15:58:49;94616.91;;;11.27;51.79
32243;BME280;18731;42.830;24.390;2023-04-09T16:01:14;94622.25;;;11.27;52.48
32243;BME280;18731;42.830;24.390;2023-04-09T16:03:41;94617.25;;;11.25;52.38